KGDV

Dawson Community Airport

Glendive, Montana, USA
METAR KGDV 181556Z AUTO 19008KT 10SM CLR 11/03 A3004 RMK AO2 SLP179 T01110028
Observed Flight Rules
Oct-18 @ 15:56 UTC (5 minutes ago) Visual Flight Rules
Wind Visibility Clouds
190° at 8 knots 10 miles
  • Clear skies
Temperatures Readings
Current 11°C / 52°F
Dewpoint 3°C / 37°F
Humidity 58%
Altimeter 30.04" Hg
Pressure 1017.9 hPa
Elevation 749
METAR KGDV 181556Z AUTO 19008KT 10SM CLR 11/03 A3004 RMK AO2 SLP179 T01110028
Observed Flight Rules
Oct-18 @ 15:56 UTC
(5 minutes ago)
VFR
Wind Visibility
190° at 8 knots 10 miles
Clouds
  • Clear skies
Temperature Dewpoint
11°C / 52°F 3°C / 37°F
Humidity Altimeter Pressure
58% 30.04" Hg 1017.9 hPa